sensor_id;sensor_type;location;lat;lon;timestamp;temperature;humidity
3684;DHT22;1858;48.716;9.648;2023-07-24T00:01:29;20.00;99.90
3684;DHT22;1858;48.716;9.648;2023-07-24T00:03:57;19.70;1.00
3684;DHT22;1858;48.716;9.648;2023-07-24T00:06:25;19.70;1.00
3684;DHT22;1858;48.716;9.648;2023-07-24T00:08:53;19.60;1.00
3684;DHT22;1858;48.716;9.648;2023-07-24T00:11:20;19.60;1.00
3684;DHT22;1858;48.716;9.648;2023-07-24T00:13:49;19.40;1.00
3684;DHT22;1858;48.716;9.648;2023-07-24T00:16:16;19.30;1.00
3684;DHT22;1858;48.716;9.648;2023-07-24T00:18:44;19.30;99.90
3684;DHT22;1858;48.716;9.648;2023-07-24T00:21:12;19.20;99.90
3684;DHT22;1858;48.716;9.648;2023-07-24T00:23:41;19.20;99.90
3684;DHT22;1858;48.716;9.648;2023-07-24T00:26:09;19.10;99.90
3684;DHT22;1858;48.716;9.648;2023-07-24T00:28:37;19.10;99.90
3684;DHT22;1858;48.716;9.648;2023-07-24T00:31:06;19.10;99.90
3684;DHT22;1858;48.716;9.648;2023-07-24T00:33:34;19.10;99.90
3684;DHT22;1858;48.716;9.648;2023-07-24T00:36:02;19.00;99.90
3684;DHT22;1858;48.716;9.648;2023-07-24T00:38:30;19.00;99.90
3684;DHT22;1858;48.716;9.648;2023-07-24T00:40:58;18.90;99.90
3684;DHT22;1858;48.716;9.648;2023-07-24T00:43:26;18.80;99.90
3684;DHT22;1858;48.716;9.648;2023-07-24T00:45:56;18.70;99.90
3684;DHT22;1858;48.716;9.648;2023-07-24T00:48:25;18.60;1.00
3684;DHT22;1858;48.716;9.648;2023-07-24T00:50:54;18.60;1.00
3684;DHT22;1858;48.716;9.648;2023-07-24T00:53:21;18.50;1.00
3684;DHT22;1858;48.716;9.648;2023-07-24T00:55:49;18.40;1.00
3684;DHT22;1858;48.716;9.648;2023-07-24T00:58:17;18.30;1.00
3684;DHT22;1858;48.716;9.648;2023-07-24T01:00:45;18.20;80.20
3684;DHT22;1858;48.716;9.648;2023-07-24T01:03:13;18.30;44.40
3684;DHT22;1858;48.716;9.648;2023-07-24T01:05:41;18.20;7.30
3684;DHT22;1858;48.716;9.648;2023-07-24T01:08:09;18.20;17.70
3684;DHT22;1858;48.716;9.648;2023-07-24T01:10:36;18.20;97.70
3684;DHT22;1858;48.716;9.648;2023-07-24T01:15:50;18.00;99.90
3684;DHT22;1858;48.716;9.648;2023-07-24T01:18:09;18.00;99.90
3684;DHT22;1858;48.716;9.648;2023-07-24T01:20:37;18.00;99.90
3684;DHT22;1858;48.716;9.648;2023-07-24T01:23:13;18.00;99.90
3684;DHT22;1858;48.716;9.648;2023-07-24T01:25:56;18.00;99.90
3684;DHT22;1858;48.716;9.648;2023-07-24T01:28:24;17.90;99.90
3684;DHT22;1858;48.716;9.648;2023-07-24T01:30:52;17.70;99.90
3684;DHT22;1858;48.716;9.648;2023-07-24T01:33:20;17.80;99.90
3684;DHT22;1858;48.716;9.648;2023-07-24T01:35:49;17.70;99.90
3684;DHT22;1858;48.716;9.648;2023-07-24T01:38:18;17.70;99.90
3684;DHT22;1858;48.716;9.648;2023-07-24T01:40:46;17.60;99.90
3684;DHT22;1858;48.716;9.648;2023-07-24T01:43:14;17.60;1.40
3684;DHT22;1858;48.716;9.648;2023-07-24T01:45:42;17.60;99.90
3684;DHT22;1858;48.716;9.648;2023-07-24T01:48:09;17.50;99.90
3684;DHT22;1858;48.716;9.648;2023-07-24T01:50:37;17.40;99.90
3684;DHT22;1858;48.716;9.648;2023-07-24T01:53:04;17.40;1.00
3684;DHT22;1858;48.716;9.648;2023-07-24T01:55:32;17.40;1.00
3684;DHT22;1858;48.716;9.648;2023-07-24T01:57:59;17.40;1.00
3684;DHT22;1858;48.716;9.648;2023-07-24T02:00:27;17.40;1.00
3684;DHT22;1858;48.716;9.648;2023-07-24T02:02:55;17.40;1.00
3684;DHT22;1858;48.716;9.648;2023-07-24T02:05:25;17.40;1.00
3684;DHT22;1858;48.716;9.648;2023-07-24T02:07:53;17.50;1.00
3684;DHT22;1858;48.716;9.648;2023-07-24T02:10:20;17.50;99.90
3684;DHT22;1858;48.716;9.648;2023-07-24T02:12:48;17.50;99.90
3684;DHT22;1858;48.716;9.648;2023-07-24T02:15:16;17.60;99.90
3684;DHT22;1858;48.716;9.648;2023-07-24T02:17:43;17.60;99.90
3684;DHT22;1858;48.716;9.648;2023-07-24T02:20:11;17.50;99.90
3684;DHT22;1858;48.716;9.648;2023-07-24T02:22:38;17.60;99.90
3684;DHT22;1858;48.716;9.648;2023-07-24T02:25:06;17.60;99.90
3684;DHT22;1858;48.716;9.648;2023-07-24T02:27:33;17.60;99.90
3684;DHT22;1858;48.716;9.648;2023-07-24T02:30:01;17.60;99.90
3684;DHT22;1858;48.716;9.648;2023-07-24T02:32:29;17.50;99.90
3684;DHT22;1858;48.716;9.648;2023-07-24T02:34:57;17.40;99.90
3684;DHT22;1858;48.716;9.648;2023-07-24T02:37:25;17.40;99.90
3684;DHT22;1858;48.716;9.648;2023-07-24T02:39:53;17.20;99.90
3684;DHT22;1858;48.716;9.648;2023-07-24T02:42:21;17.30;99.90
3684;DHT22;1858;48.716;9.648;2023-07-24T02:44:48;17.30;99.90
3684;DHT22;1858;48.716;9.648;2023-07-24T02:47:16;17.20;99.90
3684;DHT22;1858;48.716;9.648;2023-07-24T02:49:43;17.20;99.90
3684;DHT22;1858;48.716;9.648;2023-07-24T02:52:11;17.20;99.90
3684;DHT22;1858;48.716;9.648;2023-07-24T02:54:39;17.20;99.90
3684;DHT22;1858;48.716;9.648;2023-07-24T02:57:06;17.20;99.90
3684;DHT22;1858;48.716;9.648;2023-07-24T02:59:34;17.20;99.90
3684;DHT22;1858;48.716;9.648;2023-07-24T03:02:02;17.20;99.90
3684;DHT22;1858;48.716;9.648;2023-07-24T03:04:29;17.00;99.90
3684;DHT22;1858;48.716;9.648;2023-07-24T03:09:44;16.70;99.90
3684;DHT22;1858;48.716;9.648;2023-07-24T03:12:12;16.60;99.90
3684;DHT22;1858;48.716;9.648;2023-07-24T03:14:39;16.70;84.40
3684;DHT22;1858;48.716;9.648;2023-07-24T03:17:07;16.60;1.00
3684;DHT22;1858;48.716;9.648;2023-07-24T03:19:34;16.60;1.00
3684;DHT22;1858;48.716;9.648;2023-07-24T03:22:02;16.70;1.00
3684;DHT22;1858;48.716;9.648;2023-07-24T03:24:30;16.60;1.00
3684;DHT22;1858;48.716;9.648;2023-07-24T03:26:57;16.80;1.00
3684;DHT22;1858;48.716;9.648;2023-07-24T03:29:26;16.80;1.00
3684;DHT22;1858;48.716;9.648;2023-07-24T03:31:54;16.80;1.00
3684;DHT22;1858;48.716;9.648;2023-07-24T03:34:23;16.90;1.00
3684;DHT22;1858;48.716;9.648;2023-07-24T03:36:50;16.90;99.90
3684;DHT22;1858;48.716;9.648;2023-07-24T03:39:18;16.90;1.00
3684;DHT22;1858;48.716;9.648;2023-07-24T03:41:46;17.00;1.00
3684;DHT22;1858;48.716;9.648;2023-07-24T03:44:13;17.20;99.90
3684;DHT22;1858;48.716;9.648;2023-07-24T03:46:41;17.10;99.90
3684;DHT22;1858;48.716;9.648;2023-07-24T03:49:08;17.20;99.90
3684;DHT22;1858;48.716;9.648;2023-07-24T03:51:36;17.20;99.90
3684;DHT22;1858;48.716;9.648;2023-07-24T03:54:04;17.30;99.90
3684;DHT22;1858;48.716;9.648;2023-07-24T03:56:31;17.20;99.90
3684;DHT22;1858;48.716;9.648;2023-07-24T03:58:59;17.30;99.90
3684;DHT22;1858;48.716;9.648;2023-07-24T04:01:26;17.40;99.90
3684;DHT22;1858;48.716;9.648;2023-07-24T04:03:54;17.50;99.90
3684;DHT22;1858;48.716;9.648;2023-07-24T04:06:21;17.60;99.90
3684;DHT22;1858;48.716;9.648;2023-07-24T04:08:49;17.60;99.90
3684;DHT22;1858;48.716;9.648;2023-07-24T04:11:17;17.60;99.90
3684;DHT22;1858;48.716;9.648;2023-07-24T04:13:45;17.70;99.90
3684;DHT22;1858;48.716;9.648;2023-07-24T04:16:12;17.80;99.90
3684;DHT22;1858;48.716;9.648;2023-07-24T04:18:40;17.90;99.90
3684;DHT22;1858;48.716;9.648;2023-07-24T04:21:08;18.00;99.90
3684;DHT22;1858;48.716;9.648;2023-07-24T04:23:35;18.10;99.90
3684;DHT22;1858;48.716;9.648;2023-07-24T04:26:03;18.20;99.90
3684;DHT22;1858;48.716;9.648;2023-07-24T04:28:32;18.50;45.40
3684;DHT22;1858;48.716;9.648;2023-07-24T04:31:01;18.60;66.50
3684;DHT22;1858;48.716;9.648;2023-07-24T04:33:29;18.60;1.00
3684;DHT22;1858;48.716;9.648;2023-07-24T04:35:58;18.80;1.00
3684;DHT22;1858;48.716;9.648;2023-07-24T04:38:26;18.90;1.00
3684;DHT22;1858;48.716;9.648;2023-07-24T04:40:55;18.90;1.00
3684;DHT22;1858;48.716;9.648;2023-07-24T04:43:23;19.00;1.00
3684;DHT22;1858;48.716;9.648;2023-07-24T04:45:51;19.10;1.00
3684;DHT22;1858;48.716;9.648;2023-07-24T04:48:20;19.20;1.00
3684;DHT22;1858;48.716;9.648;2023-07-24T04:50:53;19.30;1.00
3684;DHT22;1858;48.716;9.648;2023-07-24T04:53:23;19.60;1.00
3684;DHT22;1858;48.716;9.648;2023-07-24T04:56:11;19.60;1.00
3684;DHT22;1858;48.716;9.648;2023-07-24T04:58:39;19.60;1.00
3684;DHT22;1858;48.716;9.648;2023-07-24T05:01:06;19.80;1.00
3684;DHT22;1858;48.716;9.648;2023-07-24T05:03:34;19.80;1.00
3684;DHT22;1858;48.716;9.648;2023-07-24T05:06:03;19.90;1.00
3684;DHT22;1858;48.716;9.648;2023-07-24T05:08:31;19.90;1.00
3684;DHT22;1858;48.716;9.648;2023-07-24T05:10:59;19.90;1.00
3684;DHT22;1858;48.716;9.648;2023-07-24T05:13:28;20.00;1.00
3684;DHT22;1858;48.716;9.648;2023-07-24T05:15:56;20.10;1.00
3684;DHT22;1858;48.716;9.648;2023-07-24T05:18:25;20.30;99.90
3684;DHT22;1858;48.716;9.648;2023-07-24T05:20:52;20.30;99.90
3684;DHT22;1858;48.716;9.648;2023-07-24T05:23:40;20.50;1.00
3684;DHT22;1858;48.716;9.648;2023-07-24T05:26:28;20.80;99.90
3684;DHT22;1858;48.716;9.648;2023-07-24T05:28:56;20.80;99.90
3684;DHT22;1858;48.716;9.648;2023-07-24T05:31:24;21.10;99.90
3684;DHT22;1858;48.716;9.648;2023-07-24T05:33:53;21.20;99.90
3684;DHT22;1858;48.716;9.648;2023-07-24T05:36:21;21.50;99.90
3684;DHT22;1858;48.716;9.648;2023-07-24T05:38:52;21.70;99.90
3684;DHT22;1858;48.716;9.648;2023-07-24T05:41:19;21.60;99.90
3684;DHT22;1858;48.716;9.648;2023-07-24T05:43:47;21.80;99.90
3684;DHT22;1858;48.716;9.648;2023-07-24T05:46:15;22.10;99.90
3684;DHT22;1858;48.716;9.648;2023-07-24T05:48:42;22.20;99.90
3684;DHT22;1858;48.716;9.648;2023-07-24T05:51:10;22.40;99.90
3684;DHT22;1858;48.716;9.648;2023-07-24T05:53:38;22.90;99.90
3684;DHT22;1858;48.716;9.648;2023-07-24T05:56:06;23.20;99.90
3684;DHT22;1858;48.716;9.648;2023-07-24T05:58:33;23.60;99.90
3684;DHT22;1858;48.716;9.648;2023-07-24T06:01:01;23.60;99.90
3684;DHT22;1858;48.716;9.648;2023-07-24T06:03:29;23.70;99.90
3684;DHT22;1858;48.716;9.648;2023-07-24T06:05:58;24.00;99.90
3684;DHT22;1858;48.716;9.648;2023-07-24T06:08:26;24.10;99.90
3684;DHT22;1858;48.716;9.648;2023-07-24T06:10:54;23.70;99.90
3684;DHT22;1858;48.716;9.648;2023-07-24T06:13:22;23.80;99.90
3684;DHT22;1858;48.716;9.648;2023-07-24T06:15:51;23.90;99.90
3684;DHT22;1858;48.716;9.648;2023-07-24T06:18:19;23.90;99.90
3684;DHT22;1858;48.716;9.648;2023-07-24T06:20:47;24.00;99.90
3684;DHT22;1858;48.716;9.648;2023-07-24T06:23:17;24.10;99.90
3684;DHT22;1858;48.716;9.648;2023-07-24T06:25:45;24.10;99.90
3684;DHT22;1858;48.716;9.648;2023-07-24T06:28:13;24.10;99.90
3684;DHT22;1858;48.716;9.648;2023-07-24T06:30:41;24.00;99.90
3684;DHT22;1858;48.716;9.648;2023-07-24T06:33:08;24.10;99.90
3684;DHT22;1858;48.716;9.648;2023-07-24T06:35:37;24.10;99.90
3684;DHT22;1858;48.716;9.648;2023-07-24T06:38:05;24.10;99.90
3684;DHT22;1858;48.716;9.648;2023-07-24T06:40:35;24.00;99.90
3684;DHT22;1858;48.716;9.648;2023-07-24T06:43:03;23.90;99.90
3684;DHT22;1858;48.716;9.648;2023-07-24T06:45:31;23.80;99.90
3684;DHT22;1858;48.716;9.648;2023-07-24T06:47:59;23.90;99.90
3684;DHT22;1858;48.716;9.648;2023-07-24T06:50:26;23.90;99.90
3684;DHT22;1858;48.716;9.648;2023-07-24T06:52:54;24.00;99.90
3684;DHT22;1858;48.716;9.648;2023-07-24T06:55:22;24.00;99.90
3684;DHT22;1858;48.716;9.648;2023-07-24T06:57:49;24.00;99.90
3684;DHT22;1858;48.716;9.648;2023-07-24T07:00:17;24.00;99.90
3684;DHT22;1858;48.716;9.648;2023-07-24T07:02:44;24.00;99.90
3684;DHT22;1858;48.716;9.648;2023-07-24T07:05:13;23.90;99.90
3684;DHT22;1858;48.716;9.648;2023-07-24T07:07:41;23.70;99.90
3684;DHT22;1858;48.716;9.648;2023-07-24T07:10:09;23.50;99.90
3684;DHT22;1858;48.716;9.648;2023-07-24T07:12:37;23.40;99.90
3684;DHT22;1858;48.716;9.648;2023-07-24T07:15:06;23.10;99.90
3684;DHT22;1858;48.716;9.648;2023-07-24T07:17:34;23.10;99.90
3684;DHT22;1858;48.716;9.648;2023-07-24T07:20:03;23.50;99.90
3684;DHT22;1858;48.716;9.648;2023-07-24T07:22:32;23.50;99.90
3684;DHT22;1858;48.716;9.648;2023-07-24T07:24:59;23.70;99.90
3684;DHT22;1858;48.716;9.648;2023-07-24T07:27:28;23.80;99.90
3684;DHT22;1858;48.716;9.648;2023-07-24T07:29:56;23.80;99.90
3684;DHT22;1858;48.716;9.648;2023-07-24T07:32:23;23.90;99.90
3684;DHT22;1858;48.716;9.648;2023-07-24T07:34:52;24.00;99.90
3684;DHT22;1858;48.716;9.648;2023-07-24T07:37:20;23.90;99.90
3684;DHT22;1858;48.716;9.648;2023-07-24T07:39:48;23.90;87.80
3684;DHT22;1858;48.716;9.648;2023-07-24T07:42:16;23.90;83.00
3684;DHT22;1858;48.716;9.648;2023-07-24T07:44:45;24.10;91.40
3684;DHT22;1858;48.716;9.648;2023-07-24T07:47:12;24.40;72.90
3684;DHT22;1858;48.716;9.648;2023-07-24T07:52:27;24.80;32.50
3684;DHT22;1858;48.716;9.648;2023-07-24T07:54:55;24.70;29.10
3684;DHT22;1858;48.716;9.648;2023-07-24T07:57:23;24.60;36.90
3684;DHT22;1858;48.716;9.648;2023-07-24T07:59:52;25.00;36.70
3684;DHT22;1858;48.716;9.648;2023-07-24T08:02:20;25.30;30.20
3684;DHT22;1858;48.716;9.648;2023-07-24T08:04:48;26.00;10.70
3684;DHT22;1858;48.716;9.648;2023-07-24T08:07:16;26.30;7.10
3684;DHT22;1858;48.716;9.648;2023-07-24T08:09:46;26.60;1.00
3684;DHT22;1858;48.716;9.648;2023-07-24T08:12:14;26.70;1.00
3684;DHT22;1858;48.716;9.648;2023-07-24T08:14:42;26.50;1.00
3684;DHT22;1858;48.716;9.648;2023-07-24T08:17:11;26.20;1.00
3684;DHT22;1858;48.716;9.648;2023-07-24T08:19:39;26.10;1.00
3684;DHT22;1858;48.716;9.648;2023-07-24T08:22:07;25.90;1.00
3684;DHT22;1858;48.716;9.648;2023-07-24T08:24:36;25.50;4.90
3684;DHT22;1858;48.716;9.648;2023-07-24T08:27:05;25.50;1.00
3684;DHT22;1858;48.716;9.648;2023-07-24T08:29:33;25.50;5.70
3684;DHT22;1858;48.716;9.648;2023-07-24T08:32:04;25.40;5.30
3684;DHT22;1858;48.716;9.648;2023-07-24T08:34:32;25.30;12.30
3684;DHT22;1858;48.716;9.648;2023-07-24T08:37:01;25.30;16.60
3684;DHT22;1858;48.716;9.648;2023-07-24T08:39:30;25.30;27.20
3684;DHT22;1858;48.716;9.648;2023-07-24T08:41:59;25.40;28.20
3684;DHT22;1858;48.716;9.648;2023-07-24T08:44:29;25.60;32.60
3684;DHT22;1858;48.716;9.648;2023-07-24T08:46:59;26.40;22.40
3684;DHT22;1858;48.716;9.648;2023-07-24T08:49:30;27.70;1.00
3684;DHT22;1858;48.716;9.648;2023-07-24T08:51:58;28.20;1.00
3684;DHT22;1858;48.716;9.648;2023-07-24T08:54:30;28.30;1.00
3684;DHT22;1858;48.716;9.648;2023-07-24T08:57:02;28.10;1.00
3684;DHT22;1858;48.716;9.648;2023-07-24T08:59:31;27.70;1.00
3684;DHT22;1858;48.716;9.648;2023-07-24T09:02:00;27.70;1.00
3684;DHT22;1858;48.716;9.648;2023-07-24T09:04:29;27.50;1.00
3684;DHT22;1858;48.716;9.648;2023-07-24T09:06:58;27.20;1.00
3684;DHT22;1858;48.716;9.648;2023-07-24T09:09:30;26.90;1.00
3684;DHT22;1858;48.716;9.648;2023-07-24T09:11:59;26.50;1.00
3684;DHT22;1858;48.716;9.648;2023-07-24T09:14:28;25.90;4.60
3684;DHT22;1858;48.716;9.648;2023-07-24T09:19:56;25.80;39.50
3684;DHT22;1858;48.716;9.648;2023-07-24T09:22:25;25.60;38.30
3684;DHT22;1858;48.716;9.648;2023-07-24T09:24:56;25.80;47.10
3684;DHT22;1858;48.716;9.648;2023-07-24T09:27:27;25.30;50.10
3684;DHT22;1858;48.716;9.648;2023-07-24T09:30:15;25.30;86.30
3684;DHT22;1858;48.716;9.648;2023-07-24T09:32:51;25.40;79.40
3684;DHT22;1858;48.716;9.648;2023-07-24T09:35:18;25.40;84.70
3684;DHT22;1858;48.716;9.648;2023-07-24T09:37:47;25.60;95.70
3684;DHT22;1858;48.716;9.648;2023-07-24T09:40:15;25.70;65.70
3684;DHT22;1858;48.716;9.648;2023-07-24T09:42:44;25.90;43.40
3684;DHT22;1858;48.716;9.648;2023-07-24T09:45:12;26.20;38.40
3684;DHT22;1858;48.716;9.648;2023-07-24T09:47:41;26.40;51.70
3684;DHT22;1858;48.716;9.648;2023-07-24T09:50:10;26.50;53.40
3684;DHT22;1858;48.716;9.648;2023-07-24T09:52:40;26.40;37.50
3684;DHT22;1858;48.716;9.648;2023-07-24T09:55:30;26.30;22.10
3684;DHT22;1858;48.716;9.648;2023-07-24T09:57:59;26.10;48.00
3684;DHT22;1858;48.716;9.648;2023-07-24T10:00:29;26.00;49.10
3684;DHT22;1858;48.716;9.648;2023-07-24T10:03:00;26.10;51.40
3684;DHT22;1858;48.716;9.648;2023-07-24T10:05:29;26.10;52.90
3684;DHT22;1858;48.716;9.648;2023-07-24T10:07:58;26.10;78.50
3684;DHT22;1858;48.716;9.648;2023-07-24T10:10:27;26.00;72.00
3684;DHT22;1858;48.716;9.648;2023-07-24T10:12:58;25.90;99.90
3684;DHT22;1858;48.716;9.648;2023-07-24T10:15:26;25.50;99.90
3684;DHT22;1858;48.716;9.648;2023-07-24T10:21:06;25.30;99.90
3684;DHT22;1858;48.716;9.648;2023-07-24T10:23:36;25.30;99.90
3684;DHT22;1858;48.716;9.648;2023-07-24T10:26:06;25.20;99.90
3684;DHT22;1858;48.716;9.648;2023-07-24T10:28:40;25.10;99.90
3684;DHT22;1858;48.716;9.648;2023-07-24T10:31:22;25.10;99.90
3684;DHT22;1858;48.716;9.648;2023-07-24T10:33:53;24.80;99.90
3684;DHT22;1858;48.716;9.648;2023-07-24T10:36:22;24.70;99.90
3684;DHT22;1858;48.716;9.648;2023-07-24T10:38:53;24.50;99.90
3684;DHT22;1858;48.716;9.648;2023-07-24T10:41:22;24.40;99.90
3684;DHT22;1858;48.716;9.648;2023-07-24T10:43:51;24.30;99.90
3684;DHT22;1858;48.716;9.648;2023-07-24T10:49:08;24.10;1.00
3684;DHT22;1858;48.716;9.648;2023-07-24T10:51:35;23.90;1.00
3684;DHT22;1858;48.716;9.648;2023-07-24T10:54:04;23.80;1.00
3684;DHT22;1858;48.716;9.648;2023-07-24T10:56:33;23.70;1.00
3684;DHT22;1858;48.716;9.648;2023-07-24T10:59:04;23.40;11.20
3684;DHT22;1858;48.716;9.648;2023-07-24T11:01:34;23.40;43.60
3684;DHT22;1858;48.716;9.648;2023-07-24T11:04:02;23.40;41.10
3684;DHT22;1858;48.716;9.648;2023-07-24T11:06:31;23.30;14.60
3684;DHT22;1858;48.716;9.648;2023-07-24T11:09:00;22.80;99.90
3684;DHT22;1858;48.716;9.648;2023-07-24T11:11:29;22.60;94.30
3684;DHT22;1858;48.716;9.648;2023-07-24T11:13:58;22.40;99.90
3684;DHT22;1858;48.716;9.648;2023-07-24T11:16:27;22.20;99.90
3684;DHT22;1858;48.716;9.648;2023-07-24T11:18:56;22.10;1.00
3684;DHT22;1858;48.716;9.648;2023-07-24T11:21:24;22.20;1.00
3684;DHT22;1858;48.716;9.648;2023-07-24T11:23:52;22.40;1.00
3684;DHT22;1858;48.716;9.648;2023-07-24T11:26:22;22.60;1.00
3684;DHT22;1858;48.716;9.648;2023-07-24T11:28:50;22.60;1.00
3684;DHT22;1858;48.716;9.648;2023-07-24T11:31:18;22.30;1.00
3684;DHT22;1858;48.716;9.648;2023-07-24T11:33:49;22.40;99.90
3684;DHT22;1858;48.716;9.648;2023-07-24T11:36:17;22.20;1.00
3684;DHT22;1858;48.716;9.648;2023-07-24T11:38:45;22.40;1.00
3684;DHT22;1858;48.716;9.648;2023-07-24T11:41:13;22.20;99.90
3684;DHT22;1858;48.716;9.648;2023-07-24T11:43:49;22.20;99.90
3684;DHT22;1858;48.716;9.648;2023-07-24T11:46:28;22.10;99.90
3684;DHT22;1858;48.716;9.648;2023-07-24T11:48:51;22.30;99.90
3684;DHT22;1858;48.716;9.648;2023-07-24T11:51:21;22.50;99.90
3684;DHT22;1858;48.716;9.648;2023-07-24T11:53:52;22.60;99.90
3684;DHT22;1858;48.716;9.648;2023-07-24T11:56:40;23.00;99.90
3684;DHT22;1858;48.716;9.648;2023-07-24T11:59:14;23.30;99.90
3684;DHT22;1858;48.716;9.648;2023-07-24T12:01:49;23.50;99.90
3684;DHT22;1858;48.716;9.648;2023-07-24T12:04:17;23.80;99.90
3684;DHT22;1858;48.716;9.648;2023-07-24T12:06:46;24.30;17.60
3684;DHT22;1858;48.716;9.648;2023-07-24T12:09:15;24.40;1.00
3684;DHT22;1858;48.716;9.648;2023-07-24T12:11:44;24.90;99.90
3684;DHT22;1858;48.716;9.648;2023-07-24T12:14:14;24.80;1.00
3684;DHT22;1858;48.716;9.648;2023-07-24T12:16:42;25.20;1.00
3684;DHT22;1858;48.716;9.648;2023-07-24T12:19:11;25.50;1.00
3684;DHT22;1858;48.716;9.648;2023-07-24T12:21:39;25.70;99.90
3684;DHT22;1858;48.716;9.648;2023-07-24T12:24:08;26.00;99.90
3684;DHT22;1858;48.716;9.648;2023-07-24T12:26:36;26.10;99.90
3684;DHT22;1858;48.716;9.648;2023-07-24T12:29:04;26.40;1.00
3684;DHT22;1858;48.716;9.648;2023-07-24T12:31:33;26.60;1.00
3684;DHT22;1858;48.716;9.648;2023-07-24T12:34:01;26.80;99.90
3684;DHT22;1858;48.716;9.648;2023-07-24T12:36:30;27.00;99.90
3684;DHT22;1858;48.716;9.648;2023-07-24T12:39:17;26.60;99.90
3684;DHT22;1858;48.716;9.648;2023-07-24T12:41:46;26.60;99.90
3684;DHT22;1858;48.716;9.648;2023-07-24T12:44:15;26.70;99.90
3684;DHT22;1858;48.716;9.648;2023-07-24T12:46:43;26.70;99.90
3684;DHT22;1858;48.716;9.648;2023-07-24T12:49:11;26.70;99.90
3684;DHT22;1858;48.716;9.648;2023-07-24T12:51:40;27.00;99.90
3684;DHT22;1858;48.716;9.648;2023-07-24T12:54:08;26.80;99.90
3684;DHT22;1858;48.716;9.648;2023-07-24T12:56:38;26.80;99.90
3684;DHT22;1858;48.716;9.648;2023-07-24T12:59:07;27.20;99.90
3684;DHT22;1858;48.716;9.648;2023-07-24T13:01:36;27.30;99.90
3684;DHT22;1858;48.716;9.648;2023-07-24T13:04:23;27.10;99.90
3684;DHT22;1858;48.716;9.648;2023-07-24T13:06:52;27.50;99.90
3684;DHT22;1858;48.716;9.648;2023-07-24T13:09:21;27.60;55.00
3684;DHT22;1858;48.716;9.648;2023-07-24T13:11:51;27.50;99.90
3684;DHT22;1858;48.716;9.648;2023-07-24T13:17:10;26.90;32.70
3684;DHT22;1858;48.716;9.648;2023-07-24T13:19:38;26.40;58.10
3684;DHT22;1858;48.716;9.648;2023-07-24T13:22:07;26.30;70.90
3684;DHT22;1858;48.716;9.648;2023-07-24T13:24:35;26.30;82.90
3684;DHT22;1858;48.716;9.648;2023-07-24T13:27:06;26.30;79.80
3684;DHT22;1858;48.716;9.648;2023-07-24T13:29:34;26.50;64.60
3684;DHT22;1858;48.716;9.648;2023-07-24T13:32:04;26.80;49.80
3684;DHT22;1858;48.716;9.648;2023-07-24T13:34:33;27.00;35.00
3684;DHT22;1858;48.716;9.648;2023-07-24T13:37:01;26.80;24.30
3684;DHT22;1858;48.716;9.648;2023-07-24T13:39:29;26.70;12.80
3684;DHT22;1858;48.716;9.648;2023-07-24T13:41:58;26.70;12.80
3684;DHT22;1858;48.716;9.648;2023-07-24T13:44:27;26.60;13.00
3684;DHT22;1858;48.716;9.648;2023-07-24T13:46:55;26.70;21.40
3684;DHT22;1858;48.716;9.648;2023-07-24T13:49:25;26.80;6.80
3684;DHT22;1858;48.716;9.648;2023-07-24T13:51:53;26.40;5.00
3684;DHT22;1858;48.716;9.648;2023-07-24T13:54:21;26.30;11.80
3684;DHT22;1858;48.716;9.648;2023-07-24T13:56:50;26.20;12.10
3684;DHT22;1858;48.716;9.648;2023-07-24T13:59:18;26.10;18.30
3684;DHT22;1858;48.716;9.648;2023-07-24T14:01:47;25.90;17.50
3684;DHT22;1858;48.716;9.648;2023-07-24T14:04:15;25.90;16.20
3684;DHT22;1858;48.716;9.648;2023-07-24T14:06:43;25.90;12.00
3684;DHT22;1858;48.716;9.648;2023-07-24T14:09:12;25.80;20.40
3684;DHT22;1858;48.716;9.648;2023-07-24T14:12:01;26.10;26.10
3684;DHT22;1858;48.716;9.648;2023-07-24T14:14:29;26.30;26.00
3684;DHT22;1858;48.716;9.648;2023-07-24T14:16:58;26.30;16.60
3684;DHT22;1858;48.716;9.648;2023-07-24T14:19:26;26.20;15.40
3684;DHT22;1858;48.716;9.648;2023-07-24T14:21:56;26.20;13.00
3684;DHT22;1858;48.716;9.648;2023-07-24T14:24:24;25.80;17.00
3684;DHT22;1858;48.716;9.648;2023-07-24T14:26:53;25.60;14.00
3684;DHT22;1858;48.716;9.648;2023-07-24T14:29:21;25.40;21.50
3684;DHT22;1858;48.716;9.648;2023-07-24T14:31:50;25.20;11.40
3684;DHT22;1858;48.716;9.648;2023-07-24T14:34:18;25.10;12.90
3684;DHT22;1858;48.716;9.648;2023-07-24T14:36:46;25.00;19.10
3684;DHT22;1858;48.716;9.648;2023-07-24T14:39:15;25.00;10.80
3684;DHT22;1858;48.716;9.648;2023-07-24T14:41:43;25.00;16.00
3684;DHT22;1858;48.716;9.648;2023-07-24T14:44:11;24.80;22.00
3684;DHT22;1858;48.716;9.648;2023-07-24T14:49:27;24.80;28.50
3684;DHT22;1858;48.716;9.648;2023-07-24T14:51:54;25.00;17.90
3684;DHT22;1858;48.716;9.648;2023-07-24T14:54:23;25.10;14.80
3684;DHT22;1858;48.716;9.648;2023-07-24T14:56:50;25.30;19.00
3684;DHT22;1858;48.716;9.648;2023-07-24T14:59:18;25.50;14.80
3684;DHT22;1858;48.716;9.648;2023-07-24T15:01:46;25.70;13.90
3684;DHT22;1858;48.716;9.648;2023-07-24T15:04:13;25.90;10.30
3684;DHT22;1858;48.716;9.648;2023-07-24T15:06:42;25.90;8.10
3684;DHT22;1858;48.716;9.648;2023-07-24T15:09:10;26.10;13.80
3684;DHT22;1858;48.716;9.648;2023-07-24T15:11:38;26.30;3.30
3684;DHT22;1858;48.716;9.648;2023-07-24T15:14:05;26.20;6.50
3684;DHT22;1858;48.716;9.648;2023-07-24T15:19:20;26.10;10.90
3684;DHT22;1858;48.716;9.648;2023-07-24T15:21:48;25.80;9.80
3684;DHT22;1858;48.716;9.648;2023-07-24T15:24:17;25.70;10.50
3684;DHT22;1858;48.716;9.648;2023-07-24T15:26:45;25.60;10.70
3684;DHT22;1858;48.716;9.648;2023-07-24T15:29:14;25.50;12.50
3684;DHT22;1858;48.716;9.648;2023-07-24T15:31:43;25.40;14.40
3684;DHT22;1858;48.716;9.648;2023-07-24T15:34:12;25.10;23.40
3684;DHT22;1858;48.716;9.648;2023-07-24T15:36:40;25.00;25.70
3684;DHT22;1858;48.716;9.648;2023-07-24T15:39:09;24.80;28.30
3684;DHT22;1858;48.716;9.648;2023-07-24T15:41:37;24.80;37.60
3684;DHT22;1858;48.716;9.648;2023-07-24T15:44:06;24.90;34.50
3684;DHT22;1858;48.716;9.648;2023-07-24T15:46:34;24.80;31.70
3684;DHT22;1858;48.716;9.648;2023-07-24T15:49:03;24.70;33.80
3684;DHT22;1858;48.716;9.648;2023-07-24T15:51:31;24.70;39.60
3684;DHT22;1858;48.716;9.648;2023-07-24T15:53:59;24.30;41.80
3684;DHT22;1858;48.716;9.648;2023-07-24T15:56:29;24.30;50.00
3684;DHT22;1858;48.716;9.648;2023-07-24T15:58:58;24.20;51.20
3684;DHT22;1858;48.716;9.648;2023-07-24T16:01:27;24.20;55.40
3684;DHT22;1858;48.716;9.648;2023-07-24T16:03:55;24.10;59.60
3684;DHT22;1858;48.716;9.648;2023-07-24T16:06:22;24.00;62.90
3684;DHT22;1858;48.716;9.648;2023-07-24T16:08:50;24.20;64.00
3684;DHT22;1858;48.716;9.648;2023-07-24T16:11:18;24.30;61.50
3684;DHT22;1858;48.716;9.648;2023-07-24T16:13:45;24.30;59.00
3684;DHT22;1858;48.716;9.648;2023-07-24T16:16:14;24.30;57.00
3684;DHT22;1858;48.716;9.648;2023-07-24T16:18:42;24.40;58.70
3684;DHT22;1858;48.716;9.648;2023-07-24T16:21:11;24.40;55.50
3684;DHT22;1858;48.716;9.648;2023-07-24T16:23:39;24.30;56.60
3684;DHT22;1858;48.716;9.648;2023-07-24T16:26:08;24.30;62.30
3684;DHT22;1858;48.716;9.648;2023-07-24T16:28:36;24.10;70.40
3684;DHT22;1858;48.716;9.648;2023-07-24T16:31:04;24.10;79.20
3684;DHT22;1858;48.716;9.648;2023-07-24T16:33:33;24.10;80.40
3684;DHT22;1858;48.716;9.648;2023-07-24T16:36:01;24.00;79.60
3684;DHT22;1858;48.716;9.648;2023-07-24T16:38:30;24.00;79.20
3684;DHT22;1858;48.716;9.648;2023-07-24T16:40:58;24.00;82.80